sensor_id;sensor_type;location;lat;lon;timestamp;pressure;altitude;pressure_sealevel;temperature;humidity
53908;BME280;40469;47.998;7.794;2023-02-13T00:01:54;100821.66;;;0.80;100.00
53908;BME280;40469;47.998;7.794;2023-02-13T00:04:19;100828.00;;;0.72;100.00
53908;BME280;40469;47.998;7.794;2023-02-13T00:06:44;100827.66;;;0.66;100.00
53908;BME280;40469;47.998;7.794;2023-02-13T00:09:12;100822.00;;;0.71;100.00
53908;BME280;40469;47.998;7.794;2023-02-13T00:11:37;100816.66;;;0.68;100.00
53908;BME280;40469;47.998;7.794;2023-02-13T00:14:02;100826.00;;;0.53;100.00
53908;BME280;40469;47.998;7.794;2023-02-13T00:16:27;100819.78;;;0.49;100.00
53908;BME280;40469;47.998;7.794;2023-02-13T00:18:53;100826.38;;;0.44;100.00
53908;BME280;40469;47.998;7.794;2023-02-13T00:21:18;100825.97;;;0.38;100.00
53908;BME280;40469;47.998;7.794;2023-02-13T00:23:43;100826.59;;;0.34;100.00
53908;BME280;40469;47.998;7.794;2023-02-13T00:26:10;100821.72;;;0.38;100.00
53908;BME280;40469;47.998;7.794;2023-02-13T00:28:35;100829.53;;;0.40;100.00
53908;BME280;40469;47.998;7.794;2023-02-13T00:31:05;100830.03;;;0.34;100.00
53908;BME280;40469;47.998;7.794;2023-02-13T00:33:30;100825.69;;;0.33;100.00
53908;BME280;40469;47.998;7.794;2023-02-13T00:38:47;100837.56;;;0.31;100.00
53908;BME280;40469;47.998;7.794;2023-02-13T00:41:13;100832.25;;;0.28;100.00
53908;BME280;40469;47.998;7.794;2023-02-13T00:43:40;100828.00;;;0.29;100.00
53908;BME280;40469;47.998;7.794;2023-02-13T00:46:05;100827.81;;;0.26;100.00
53908;BME280;40469;47.998;7.794;2023-02-13T00:48:32;100828.78;;;0.28;100.00
53908;BME280;40469;47.998;7.794;2023-02-13T00:50:57;100827.91;;;0.27;100.00
53908;BME280;40469;47.998;7.794;2023-02-13T00:53:23;100831.25;;;0.26;100.00
53908;BME280;40469;47.998;7.794;2023-02-13T00:55:48;100828.88;;;0.29;100.00
53908;BME280;40469;47.998;7.794;2023-02-13T00:58:14;100832.16;;;0.27;100.00
53908;BME280;40469;47.998;7.794;2023-02-13T01:00:40;100840.03;;;0.30;100.00
53908;BME280;40469;47.998;7.794;2023-02-13T01:03:05;100838.06;;;0.26;100.00
53908;BME280;40469;47.998;7.794;2023-02-13T01:05:31;100830.47;;;0.27;100.00
53908;BME280;40469;47.998;7.794;2023-02-13T01:07:56;100830.47;;;0.27;100.00
53908;BME280;40469;47.998;7.794;2023-02-13T01:10:22;100831.34;;;0.28;100.00
53908;BME280;40469;47.998;7.794;2023-02-13T01:12:48;100833.81;;;0.26;100.00
53908;BME280;40469;47.998;7.794;2023-02-13T01:15:13;100831.44;;;0.29;100.00
53908;BME280;40469;47.998;7.794;2023-02-13T01:17:38;100831.44;;;0.29;100.00
53908;BME280;40469;47.998;7.794;2023-02-13T01:20:07;100825.09;;;0.37;100.00
53908;BME280;40469;47.998;7.794;2023-02-13T01:22:33;100831.31;;;0.41;100.00
53908;BME280;40469;47.998;7.794;2023-02-13T01:24:58;100832.38;;;0.45;100.00
53908;BME280;40469;47.998;7.794;2023-02-13T01:27:24;100832.59;;;0.48;100.00
53908;BME280;40469;47.998;7.794;2023-02-13T01:29:49;100831.09;;;0.51;100.00
53908;BME280;40469;47.998;7.794;2023-02-13T01:32:14;100827.59;;;0.51;100.00
53908;BME280;40469;47.998;7.794;2023-02-13T01:34:39;100830.88;;;0.48;100.00
53908;BME280;40469;47.998;7.794;2023-02-13T01:37:04;100834.63;;;0.53;100.00
53908;BME280;40469;47.998;7.794;2023-02-13T01:39:30;100835.31;;;0.51;100.00
53908;BME280;40469;47.998;7.794;2023-02-13T01:41:55;100840.56;;;0.52;100.00
53908;BME280;40469;47.998;7.794;2023-02-13T01:47:04;100830.91;;;0.63;100.00
53908;BME280;40469;47.998;7.794;2023-02-13T01:49:29;100835.47;;;0.67;100.00
53908;BME280;40469;47.998;7.794;2023-02-13T01:51:55;100839.19;;;0.72;100.00
53908;BME280;40469;47.998;7.794;2023-02-13T01:54:22;100832.56;;;0.76;100.00
53908;BME280;40469;47.998;7.794;2023-02-13T01:56:50;100828.38;;;0.78;100.00
53908;BME280;40469;47.998;7.794;2023-02-13T01:59:21;100831.13;;;0.81;100.00
53908;BME280;40469;47.998;7.794;2023-02-13T02:01:48;100835.13;;;0.76;100.00
53908;BME280;40469;47.998;7.794;2023-02-13T02:04:24;100821.56;;;0.79;100.00
53908;BME280;40469;47.998;7.794;2023-02-13T02:06:53;100824.41;;;0.83;100.00
53908;BME280;40469;47.998;7.794;2023-02-13T02:09:22;100827.31;;;0.89;100.00
53908;BME280;40469;47.998;7.794;2023-02-13T02:14:14;100818.19;;;0.94;100.00
53908;BME280;40469;47.998;7.794;2023-02-13T02:16:39;100812.97;;;0.93;100.00
53908;BME280;40469;47.998;7.794;2023-02-13T02:19:06;100812.88;;;0.91;100.00
53908;BME280;40469;47.998;7.794;2023-02-13T02:34:42;100806.56;;;0.71;100.00
53908;BME280;40469;47.998;7.794;2023-02-13T02:39:43;100805.06;;;0.75;100.00
53908;BME280;40469;47.998;7.794;2023-02-13T02:44:55;100811.16;;;0.62;100.00
53908;BME280;40469;47.998;7.794;2023-02-13T02:47:30;100813.13;;;0.38;100.00
53908;BME280;40469;47.998;7.794;2023-02-13T02:58:20;100827.25;;;0.03;100.00
53908;BME280;40469;47.998;7.794;2023-02-13T03:01:05;100828.94;;;0.03;100.00
53908;BME280;40469;47.998;7.794;2023-02-13T03:03:50;100841.31;;;-0.05;100.00
53908;BME280;40469;47.998;7.794;2023-02-13T03:06:39;100832.25;;;-0.40;100.00
53908;BME280;40469;47.998;7.794;2023-02-13T03:09:09;100828.59;;;-0.57;100.00
53908;BME280;40469;47.998;7.794;2023-02-13T03:11:54;100832.53;;;-0.62;100.00
53908;BME280;40469;47.998;7.794;2023-02-13T03:14:38;100829.69;;;-0.67;100.00
53908;BME280;40469;47.998;7.794;2023-02-13T03:17:04;100830.78;;;-0.63;100.00
53908;BME280;40469;47.998;7.794;2023-02-13T03:19:54;100835.41;;;-0.58;100.00
53908;BME280;40469;47.998;7.794;2023-02-13T03:22:50;100835.31;;;-0.46;100.00
53908;BME280;40469;47.998;7.794;2023-02-13T03:28:14;100836.69;;;-0.38;100.00
53908;BME280;40469;47.998;7.794;2023-02-13T03:31:04;100832.63;;;-0.34;100.00
53908;BME280;40469;47.998;7.794;2023-02-13T03:36:08;100841.41;;;-0.30;100.00
53908;BME280;40469;47.998;7.794;2023-02-13T03:41:26;100841.00;;;-0.23;100.00
53908;BME280;40469;47.998;7.794;2023-02-13T03:43:57;100833.53;;;-0.33;100.00
53908;BME280;40469;47.998;7.794;2023-02-13T03:46:25;100842.69;;;-0.24;100.00
53908;BME280;40469;47.998;7.794;2023-02-13T03:48:51;100839.34;;;-0.23;100.00
53908;BME280;40469;47.998;7.794;2023-02-13T03:51:37;100837.78;;;-0.21;100.00
53908;BME280;40469;47.998;7.794;2023-02-13T03:54:05;100839.25;;;-0.24;100.00
53908;BME280;40469;47.998;7.794;2023-02-13T03:56:32;100846.75;;;-0.27;100.00
53908;BME280;40469;47.998;7.794;2023-02-13T03:59:22;100840.75;;;-0.28;100.00
53908;BME280;40469;47.998;7.794;2023-02-13T04:01:57;100847.84;;;-0.24;100.00
53908;BME280;40469;47.998;7.794;2023-02-13T04:06:50;100842.81;;;-0.22;100.00
53908;BME280;40469;47.998;7.794;2023-02-13T04:09:16;100842.19;;;-0.18;100.00
53908;BME280;40469;47.998;7.794;2023-02-13T04:11:46;100848.25;;;-0.17;100.00
53908;BME280;40469;47.998;7.794;2023-02-13T04:14:22;100848.16;;;-0.19;100.00
53908;BME280;40469;47.998;7.794;2023-02-13T04:16:50;100850.41;;;-0.24;100.00
53908;BME280;40469;47.998;7.794;2023-02-13T04:19:17;100849.53;;;-0.24;100.00
53908;BME280;40469;47.998;7.794;2023-02-13T04:21:43;100852.88;;;-0.25;100.00
53908;BME280;40469;47.998;7.794;2023-02-13T04:24:08;100862.06;;;-0.29;100.00
53908;BME280;40469;47.998;7.794;2023-02-13T04:26:35;100861.47;;;-0.38;100.00
53908;BME280;40469;47.998;7.794;2023-02-13T04:29:01;100859.50;;;-0.42;100.00
53908;BME280;40469;47.998;7.794;2023-02-13T04:31:27;100865.09;;;-0.48;100.00
53908;BME280;40469;47.998;7.794;2023-02-13T04:33:52;100869.94;;;-0.52;100.00
53908;BME280;40469;47.998;7.794;2023-02-13T04:36:17;100867.09;;;-0.44;100.00
53908;BME280;40469;47.998;7.794;2023-02-13T04:38:42;100862.16;;;-0.41;100.00
53908;BME280;40469;47.998;7.794;2023-02-13T04:41:09;100863.16;;;-0.39;100.00
53908;BME280;40469;47.998;7.794;2023-02-13T04:43:34;100870.84;;;-0.39;100.00
53908;BME280;40469;47.998;7.794;2023-02-13T04:45:59;100869.78;;;-0.42;100.00
53908;BME280;40469;47.998;7.794;2023-02-13T04:48:25;100869.94;;;-0.39;100.00
53908;BME280;40469;47.998;7.794;2023-02-13T04:50:50;100868.56;;;-0.34;100.00
53908;BME280;40469;47.998;7.794;2023-02-13T04:53:15;100872.22;;;-0.30;100.00
53908;BME280;40469;47.998;7.794;2023-02-13T04:55:40;100868.38;;;-0.24;100.00
53908;BME280;40469;47.998;7.794;2023-02-13T04:58:06;100870.06;;;-0.24;100.00
53908;BME280;40469;47.998;7.794;2023-02-13T05:00:31;100875.88;;;-0.27;100.00
53908;BME280;40469;47.998;7.794;2023-02-13T05:03:02;100871.94;;;-0.35;100.00
53908;BME280;40469;47.998;7.794;2023-02-13T05:05:28;100875.78;;;-0.42;100.00
53908;BME280;40469;47.998;7.794;2023-02-13T05:07:53;100885.94;;;-0.43;100.00
53908;BME280;40469;47.998;7.794;2023-02-13T05:10:18;100887.69;;;-0.55;100.00
53908;BME280;40469;47.998;7.794;2023-02-13T05:12:44;100894.63;;;-0.54;100.00
53908;BME280;40469;47.998;7.794;2023-02-13T05:15:09;100890.88;;;-0.60;100.00
53908;BME280;40469;47.998;7.794;2023-02-13T05:17:34;100888.09;;;-0.63;100.00
53908;BME280;40469;47.998;7.794;2023-02-13T05:19:59;100891.81;;;-0.71;100.00
53908;BME280;40469;47.998;7.794;2023-02-13T05:22:25;100890.75;;;-0.61;100.00
53908;BME280;40469;47.998;7.794;2023-02-13T05:25:08;100893.72;;;-0.68;100.00
53908;BME280;40469;47.998;7.794;2023-02-13T05:27:34;100894.09;;;-0.75;100.00
53908;BME280;40469;47.998;7.794;2023-02-13T05:29:59;100900.16;;;-0.87;100.00
53908;BME280;40469;47.998;7.794;2023-02-13T05:32:24;100892.34;;;-0.88;100.00
53908;BME280;40469;47.998;7.794;2023-02-13T05:34:49;100900.84;;;-0.89;100.00
53908;BME280;40469;47.998;7.794;2023-02-13T05:37:15;100898.78;;;-0.82;100.00
53908;BME280;40469;47.998;7.794;2023-02-13T05:39:40;100892.69;;;-0.84;100.00
53908;BME280;40469;47.998;7.794;2023-02-13T05:42:05;100898.13;;;-0.79;100.00
53908;BME280;40469;47.998;7.794;2023-02-13T05:44:31;100898.72;;;-0.70;100.00
53908;BME280;40469;47.998;7.794;2023-02-13T05:46:56;100892.44;;;-0.62;100.00
53908;BME280;40469;47.998;7.794;2023-02-13T05:49:21;100902.88;;;-0.59;100.00
53908;BME280;40469;47.998;7.794;2023-02-13T05:51:47;100901.41;;;-0.55;100.00
53908;BME280;40469;47.998;7.794;2023-02-13T05:54:12;100897.38;;;-0.51;100.00
53908;BME280;40469;47.998;7.794;2023-02-13T05:56:37;100897.78;;;-0.45;100.00
53908;BME280;40469;47.998;7.794;2023-02-13T05:59:03;100892.16;;;-0.40;100.00
53908;BME280;40469;47.998;7.794;2023-02-13T06:01:28;100893.03;;;-0.39;100.00
53908;BME280;40469;47.998;7.794;2023-02-13T06:03:53;100899.34;;;-0.34;100.00
53908;BME280;40469;47.998;7.794;2023-02-13T06:06:19;100898.78;;;-0.30;100.00
53908;BME280;40469;47.998;7.794;2023-02-13T06:08:45;100887.03;;;-0.26;100.00
53908;BME280;40469;47.998;7.794;2023-02-13T06:11:10;100892.06;;;-0.28;100.00
53908;BME280;40469;47.998;7.794;2023-02-13T06:13:35;100890.50;;;-0.26;100.00
53908;BME280;40469;47.998;7.794;2023-02-13T06:16:04;100887.31;;;-0.22;100.00
53908;BME280;40469;47.998;7.794;2023-02-13T06:18:29;100896.09;;;-0.18;100.00
53908;BME280;40469;47.998;7.794;2023-02-13T06:20:55;100891.56;;;-0.22;100.00
53908;BME280;40469;47.998;7.794;2023-02-13T06:23:20;100892.66;;;-0.18;100.00
53908;BME280;40469;47.998;7.794;2023-02-13T06:25:45;100887.63;;;-0.17;100.00
53908;BME280;40469;47.998;7.794;2023-02-13T06:28:10;100885.94;;;-0.16;100.00
53908;BME280;40469;47.998;7.794;2023-02-13T06:30:36;100894.06;;;-0.10;100.00
53908;BME280;40469;47.998;7.794;2023-02-13T06:33:01;100889.91;;;-0.08;100.00
53908;BME280;40469;47.998;7.794;2023-02-13T06:35:26;100878.53;;;-0.12;100.00
53908;BME280;40469;47.998;7.794;2023-02-13T06:37:52;100889.19;;;-0.06;100.00
53908;BME280;40469;47.998;7.794;2023-02-13T06:40:17;100884.66;;;-0.10;100.00
53908;BME280;40469;47.998;7.794;2023-02-13T06:42:43;100881.38;;;-0.07;100.00
53908;BME280;40469;47.998;7.794;2023-02-13T06:45:08;100884.66;;;-0.10;100.00
53908;BME280;40469;47.998;7.794;2023-02-13T06:47:33;100885.38;;;-0.12;100.00
53908;BME280;40469;47.998;7.794;2023-02-13T06:49:59;100889.09;;;-0.07;100.00
53908;BME280;40469;47.998;7.794;2023-02-13T06:52:24;100885.03;;;-0.04;100.00
53908;BME280;40469;47.998;7.794;2023-02-13T06:54:49;100881.91;;;0.01;100.00
53908;BME280;40469;47.998;7.794;2023-02-13T06:57:14;100890.38;;;-0.01;100.00
53908;BME280;40469;47.998;7.794;2023-02-13T06:59:40;100891.97;;;-0.03;100.00
53908;BME280;40469;47.998;7.794;2023-02-13T07:02:05;100886.53;;;-0.07;100.00
53908;BME280;40469;47.998;7.794;2023-02-13T07:04:31;100887.63;;;-0.17;100.00
53908;BME280;40469;47.998;7.794;2023-02-13T07:06:56;100890.28;;;-0.15;100.00
53908;BME280;40469;47.998;7.794;2023-02-13T07:09:23;100889.88;;;-0.22;100.00
53908;BME280;40469;47.998;7.794;2023-02-13T07:11:48;100889.50;;;-0.28;100.00
53908;BME280;40469;47.998;7.794;2023-02-13T07:14:14;100894.13;;;-0.35;100.00
53908;BME280;40469;47.998;7.794;2023-02-13T07:16:39;100889.19;;;-0.32;100.00
53908;BME280;40469;47.998;7.794;2023-02-13T07:19:04;100893.84;;;-0.27;100.00
53908;BME280;40469;47.998;7.794;2023-02-13T07:21:29;100887.84;;;-0.14;100.00
53908;BME280;40469;47.998;7.794;2023-02-13T07:23:54;100885.94;;;-0.03;100.00
53908;BME280;40469;47.998;7.794;2023-02-13T07:26:20;100887.22;;;0.04;100.00
53908;BME280;40469;47.998;7.794;2023-02-13T07:28:45;100891.84;;;-0.04;100.00
53908;BME280;40469;47.998;7.794;2023-02-13T07:31:10;100894.53;;;0.11;100.00
53908;BME280;40469;47.998;7.794;2023-02-13T07:33:36;100893.50;;;0.22;100.00
53908;BME280;40469;47.998;7.794;2023-02-13T07:36:01;100898.84;;;0.25;100.00
53908;BME280;40469;47.998;7.794;2023-02-13T07:38:30;100899.53;;;0.23;100.00
53908;BME280;40469;47.998;7.794;2023-02-13T07:40:58;100896.38;;;0.27;100.00
53908;BME280;40469;47.998;7.794;2023-02-13T07:43:24;100899.63;;;0.37;100.00
53908;BME280;40469;47.998;7.794;2023-02-13T07:45:49;100894.63;;;0.41;100.00
53908;BME280;40469;47.998;7.794;2023-02-13T07:48:19;100901.88;;;0.46;100.00
53908;BME280;40469;47.998;7.794;2023-02-13T07:50:44;100907.66;;;0.57;100.00
53908;BME280;40469;47.998;7.794;2023-02-13T07:53:09;100902.09;;;0.64;100.00
53908;BME280;40469;47.998;7.794;2023-02-13T07:55:34;100906.03;;;0.72;100.00
53908;BME280;40469;47.998;7.794;2023-02-13T07:58:00;100903.38;;;0.71;100.00
53908;BME280;40469;47.998;7.794;2023-02-13T08:00:25;100905.31;;;0.75;100.00
53908;BME280;40469;47.998;7.794;2023-02-13T08:02:51;100909.84;;;0.79;100.00
53908;BME280;40469;47.998;7.794;2023-02-13T08:05:16;100908.25;;;0.81;100.00
53908;BME280;40469;47.998;7.794;2023-02-13T08:07:41;100912.53;;;0.81;100.00
53908;BME280;40469;47.998;7.794;2023-02-13T08:10:07;100920.34;;;0.82;100.00
53908;BME280;40469;47.998;7.794;2023-02-13T08:12:51;100920.94;;;0.78;100.00
53908;BME280;40469;47.998;7.794;2023-02-13T08:15:16;100920.94;;;0.78;100.00
53908;BME280;40469;47.998;7.794;2023-02-13T08:17:41;100929.44;;;0.77;100.00
53908;BME280;40469;47.998;7.794;2023-02-13T08:20:07;100926.00;;;0.77;100.00
53908;BME280;40469;47.998;7.794;2023-02-13T08:22:32;100927.84;;;0.79;100.00
53908;BME280;40469;47.998;7.794;2023-02-13T08:24:58;100928.34;;;0.87;100.00
53908;BME280;40469;47.998;7.794;2023-02-13T08:27:23;100930.56;;;0.96;100.00
53908;BME280;40469;47.998;7.794;2023-02-13T08:29:48;100927.47;;;1.01;100.00
53908;BME280;40469;47.998;7.794;2023-02-13T08:32:15;100928.38;;;1.02;100.00
53908;BME280;40469;47.998;7.794;2023-02-13T08:34:40;100928.03;;;1.10;100.00
53908;BME280;40469;47.998;7.794;2023-02-13T08:37:05;100937.09;;;1.19;100.00
53908;BME280;40469;47.998;7.794;2023-02-13T08:39:30;100936.28;;;1.20;100.00
53908;BME280;40469;47.998;7.794;2023-02-13T08:41:56;100939.25;;;1.26;100.00
53908;BME280;40469;47.998;7.794;2023-02-13T08:44:21;100940.94;;;1.25;100.00
53908;BME280;40469;47.998;7.794;2023-02-13T08:46:46;100940.31;;;1.29;100.00
53908;BME280;40469;47.998;7.794;2023-02-13T08:49:11;100947.78;;;1.40;100.00
53908;BME280;40469;47.998;7.794;2023-02-13T08:51:36;100938.66;;;1.45;100.00
53908;BME280;40469;47.998;7.794;2023-02-13T08:54:02;100944.50;;;1.57;100.00
53908;BME280;40469;47.998;7.794;2023-02-13T08:56:27;100942.47;;;1.66;100.00
53908;BME280;40469;47.998;7.794;2023-02-13T08:58:52;100937.75;;;1.89;100.00
53908;BME280;40469;47.998;7.794;2023-02-13T09:01:18;100939.31;;;2.02;100.00
53908;BME280;40469;47.998;7.794;2023-02-13T09:03:44;100931.16;;;2.25;100.00
53908;BME280;40469;47.998;7.794;2023-02-13T09:06:09;100937.13;;;2.56;100.00
53908;BME280;40469;47.998;7.794;2023-02-13T09:08:34;100939.63;;;3.03;100.00
53908;BME280;40469;47.998;7.794;2023-02-13T09:11:00;100949.69;;;3.48;100.00
53908;BME280;40469;47.998;7.794;2023-02-13T09:13:27;100945.25;;;3.80;100.00
53908;BME280;40469;47.998;7.794;2023-02-13T09:15:52;100949.63;;;3.99;100.00
53908;BME280;40469;47.998;7.794;2023-02-13T09:18:18;100941.84;;;4.35;100.00
53908;BME280;40469;47.998;7.794;2023-02-13T09:20:43;100944.84;;;4.82;100.00
53908;BME280;40469;47.998;7.794;2023-02-13T09:23:08;100947.03;;;5.11;100.00
53908;BME280;40469;47.998;7.794;2023-02-13T09:25:34;100938.81;;;5.61;100.00
53908;BME280;40469;47.998;7.794;2023-02-13T09:27:59;100938.44;;;6.15;100.00
53908;BME280;40469;47.998;7.794;2023-02-13T09:30:24;100943.72;;;6.39;100.00
53908;BME280;40469;47.998;7.794;2023-02-13T09:32:52;100937.75;;;5.98;100.00
53908;BME280;40469;47.998;7.794;2023-02-13T09:35:18;100940.59;;;6.25;100.00
53908;BME280;40469;47.998;7.794;2023-02-13T09:37:44;100935.41;;;6.94;100.00
53908;BME280;40469;47.998;7.794;2023-02-13T09:40:14;100939.47;;;7.34;100.00
53908;BME280;40469;47.998;7.794;2023-02-13T09:42:42;100935.13;;;7.60;100.00
53908;BME280;40469;47.998;7.794;2023-02-13T09:45:09;100927.72;;;7.98;100.00
53908;BME280;40469;47.998;7.794;2023-02-13T09:47:38;100921.44;;;8.46;100.00
53908;BME280;40469;47.998;7.794;2023-02-13T09:50:23;100918.31;;;7.75;100.00
53908;BME280;40469;47.998;7.794;2023-02-13T09:52:50;100918.28;;;8.29;100.00
53908;BME280;40469;47.998;7.794;2023-02-13T09:55:20;100920.22;;;8.35;100.00
53908;BME280;40469;47.998;7.794;2023-02-13T10:00:28;100916.09;;;8.70;100.00
53908;BME280;40469;47.998;7.794;2023-02-13T10:13:21;100916.75;;;7.82;100.00
53908;BME280;40469;47.998;7.794;2023-02-13T10:16:06;100918.22;;;8.26;100.00
53908;BME280;40469;47.998;7.794;2023-02-13T10:18:37;100909.81;;;8.64;100.00
53908;BME280;40469;47.998;7.794;2023-02-13T10:21:05;100905.16;;;8.25;100.00
53908;BME280;40469;47.998;7.794;2023-02-13T10:24:09;100908.47;;;8.48;100.00
53908;BME280;40469;47.998;7.794;2023-02-13T10:26:25;100906.88;;;9.14;100.00
53908;BME280;40469;47.998;7.794;2023-02-13T10:29:07;100903.47;;;9.16;100.00
53908;BME280;40469;47.998;7.794;2023-02-13T10:31:53;100900.94;;;8.87;100.00
53908;BME280;40469;47.998;7.794;2023-02-13T10:34:21;100896.41;;;8.23;100.00
53908;BME280;40469;47.998;7.794;2023-02-13T10:36:47;100899.25;;;7.76;100.00
53908;BME280;40469;47.998;7.794;2023-02-13T10:44:29;100890.88;;;8.12;100.00
53908;BME280;40469;47.998;7.794;2023-02-13T10:49:46;100888.44;;;9.06;100.00
53908;BME280;40469;47.998;7.794;2023-02-13T10:57:21;100869.06;;;8.66;100.00
53908;BME280;40469;47.998;7.794;2023-02-13T11:02:27;100869.75;;;8.30;100.00
53908;BME280;40469;47.998;7.794;2023-02-13T11:05:00;100871.03;;;8.15;100.00
53908;BME280;40469;47.998;7.794;2023-02-13T11:07:26;100861.28;;;8.37;100.00
53908;BME280;40469;47.998;7.794;2023-02-13T11:09:55;100858.09;;;8.46;100.00
53908;BME280;40469;47.998;7.794;2023-02-13T11:12:23;100860.69;;;8.19;100.00
53908;BME280;40469;47.998;7.794;2023-02-13T11:14:56;100865.03;;;8.45;100.00
53908;BME280;40469;47.998;7.794;2023-02-13T11:17:22;100866.19;;;8.87;100.00
53908;BME280;40469;47.998;7.794;2023-02-13T11:19:49;100864.06;;;9.04;100.00
53908;BME280;40469;47.998;7.794;2023-02-13T11:22:38;100866.72;;;8.75;100.00
53908;BME280;40469;47.998;7.794;2023-02-13T11:25:06;100861.59;;;8.78;100.00
53908;BME280;40469;47.998;7.794;2023-02-13T11:27:33;100861.66;;;9.11;100.00
53908;BME280;40469;47.998;7.794;2023-02-13T11:30:01;100864.16;;;9.08;100.00
53908;BME280;40469;47.998;7.794;2023-02-13T11:32:27;100866.06;;;9.14;100.00
53908;BME280;40469;47.998;7.794;2023-02-13T11:34:53;100860.09;;;9.52;100.00
53908;BME280;40469;47.998;7.794;2023-02-13T11:39:45;100853.28;;;9.23;100.00
53908;BME280;40469;47.998;7.794;2023-02-13T11:42:25;100852.69;;;10.06;100.00
53908;BME280;40469;47.998;7.794;2023-02-13T11:45:36;100845.28;;;10.27;100.00
53908;BME280;40469;47.998;7.794;2023-02-13T11:47:38;100848.19;;;10.81;100.00
53908;BME280;40469;47.998;7.794;2023-02-13T11:50:04;100843.41;;;10.59;100.00
53908;BME280;40469;47.998;7.794;2023-02-13T11:52:31;100838.31;;;11.12;100.00
53908;BME280;40469;47.998;7.794;2023-02-13T11:54:57;100833.69;;;10.53;100.00
53908;BME280;40469;47.998;7.794;2023-02-13T11:59:49;100834.09;;;10.73;100.00
53908;BME280;40469;47.998;7.794;2023-02-13T12:04:43;100828.28;;;10.44;100.00
53908;BME280;40469;47.998;7.794;2023-02-13T12:07:28;100820.91;;;10.26;100.00
53908;BME280;40469;47.998;7.794;2023-02-13T12:12:36;100825.84;;;10.96;100.00
53908;BME280;40469;47.998;7.794;2023-02-13T12:15:09;100815.91;;;11.27;100.00
53908;BME280;40469;47.998;7.794;2023-02-13T12:17:39;100813.88;;;11.10;100.00
53908;BME280;40469;47.998;7.794;2023-02-13T12:20:10;100820.47;;;11.38;100.00
53908;BME280;40469;47.998;7.794;2023-02-13T12:28:13;100824.22;;;10.58;100.00
53908;BME280;40469;47.998;7.794;2023-02-13T12:30:52;100827.53;;;10.50;100.00
53908;BME280;40469;47.998;7.794;2023-02-13T12:41:20;100819.91;;;10.59;100.00
53908;BME280;40469;47.998;7.794;2023-02-13T12:46:39;100809.22;;;10.94;100.00
53908;BME280;40469;47.998;7.794;2023-02-13T12:49:22;100809.41;;;11.03;100.00
53908;BME280;40469;47.998;7.794;2023-02-13T12:57:26;100803.94;;;10.89;100.00
53908;BME280;40469;47.998;7.794;2023-02-13T13:00:08;100805.88;;;11.03;100.00
53908;BME280;40469;47.998;7.794;2023-02-13T13:05:13;100800.69;;;11.04;100.00
53908;BME280;40469;47.998;7.794;2023-02-13T13:08:18;100797.44;;;11.16;100.00
53908;BME280;40469;47.998;7.794;2023-02-13T13:10:46;100798.47;;;11.27;100.00
53908;BME280;40469;47.998;7.794;2023-02-13T13:15:41;100784.13;;;11.57;100.00
53908;BME280;40469;47.998;7.794;2023-02-13T13:28:21;100791.06;;;10.54;100.00
53908;BME280;40469;47.998;7.794;2023-02-13T13:30:47;100791.75;;;10.46;100.00
53908;BME280;40469;47.998;7.794;2023-02-13T13:33:14;100783.44;;;10.22;100.00
53908;BME280;40469;47.998;7.794;2023-02-13T13:35:41;100788.00;;;10.31;100.00
53908;BME280;40469;47.998;7.794;2023-02-13T13:41:03;100790.13;;;10.51;100.00
53908;BME280;40469;47.998;7.794;2023-02-13T13:43:40;100790.22;;;10.57;100.00
53908;BME280;40469;47.998;7.794;2023-02-13T13:46:14;100791.06;;;10.13;100.00
53908;BME280;40469;47.998;7.794;2023-02-13T13:51:21;100781.91;;;9.53;100.00
53908;BME280;40469;47.998;7.794;2023-02-13T13:59:17;100781.53;;;9.38;100.00
53908;BME280;40469;47.998;7.794;2023-02-13T14:01:43;100787.16;;;9.20;100.00
53908;BME280;40469;47.998;7.794;2023-02-13T14:11:52;100775.06;;;8.88;100.00
53908;BME280;40469;47.998;7.794;2023-02-13T14:16:55;100777.91;;;8.98;100.00
53908;BME280;40469;47.998;7.794;2023-02-13T14:19:23;100778.44;;;8.84;100.00
53908;BME280;40469;47.998;7.794;2023-02-13T14:21:49;100780.47;;;8.96;100.00
53908;BME280;40469;47.998;7.794;2023-02-13T14:24:15;100781.88;;;8.83;100.00
53908;BME280;40469;47.998;7.794;2023-02-13T14:26:42;100779.44;;;8.89;100.00
53908;BME280;40469;47.998;7.794;2023-02-13T14:31:36;100786.41;;;8.90;100.00
53908;BME280;40469;47.998;7.794;2023-02-13T14:36:38;100781.06;;;8.84;100.00
53908;BME280;40469;47.998;7.794;2023-02-13T14:39:17;100778.25;;;8.78;100.00
53908;BME280;40469;47.998;7.794;2023-02-13T14:42:20;100779.09;;;8.76;100.00
53908;BME280;40469;47.998;7.794;2023-02-13T14:44:31;100775.50;;;8.72;100.00
53908;BME280;40469;47.998;7.794;2023-02-13T14:47:02;100777.84;;;8.61;100.00
53908;BME280;40469;47.998;7.794;2023-02-13T14:49:28;100774.06;;;8.51;100.00
53908;BME280;40469;47.998;7.794;2023-02-13T14:51:56;100772.19;;;8.46;100.00
53908;BME280;40469;47.998;7.794;2023-02-13T14:54:30;100771.38;;;8.48;100.00
53908;BME280;40469;47.998;7.794;2023-02-13T14:57:03;100762.75;;;8.49;100.00
53908;BME280;40469;47.998;7.794;2023-02-13T14:59:30;100766.72;;;8.38;100.00
53908;BME280;40469;47.998;7.794;2023-02-13T15:02:00;100756.78;;;8.53;100.00
53908;BME280;40469;47.998;7.794;2023-02-13T15:04:28;100766.00;;;8.74;100.00
53908;BME280;40469;47.998;7.794;2023-02-13T15:06:56;100764.94;;;8.35;100.00
53908;BME280;40469;47.998;7.794;2023-02-13T15:09:25;100760.47;;;8.31;100.00
53908;BME280;40469;47.998;7.794;2023-02-13T15:11:52;100767.03;;;8.19;100.00
53908;BME280;40469;47.998;7.794;2023-02-13T15:14:22;100753.25;;;8.21;100.00
53908;BME280;40469;47.998;7.794;2023-02-13T15:16:53;100761.41;;;8.03;100.00
53908;BME280;40469;47.998;7.794;2023-02-13T15:19:21;100762.06;;;7.96;100.00